Latest Weather Observations for Banana Bank

IDQ60801

Issued at 10:32 pm EST Friday 7 October 2022 (issued every 10 minutes, with the page automatically refreshed every 10 minutes)

About weather observations | Map of weather stations | Latest weather observations for QLD | Other Formats
Station Details ID: 040925 Name: BANANA BANK NORTH BEACON Lat: -27.53 Lon: 153.33 Height: 7.0 m
Data from the previous 72 hours. | See also: Recent months at Banana Bank
Date/Time
EST
Temp
°C
App
Temp
°C
Dew
Point
°C
Rel
Hum
%
Delta-T
°C
Wind Press
QNH
hPa
Press
MSL
hPa
Rain since
9am
mm
Dir  Spd
km/h
Gust
km/h
Spd
kts
Gust
kts
07/10:30pm - - - - - NNE 20 24 11 13 - - -
07/10:00pm - - - - - NNE 15 19 8 10 - - -
07/09:30pm - - - - - NE 15 19 8 10 - - -
07/09:00pm - - - - - NNE 13 17 7 9 - - -
07/08:30pm - - - - - NNE 13 15 7 8 - - -
07/08:00pm - - - - - NNE 13 17 7 9 - - -
07/07:30pm - - - - - NNE 11 13 6 7 - - -
07/07:00pm - - - - - NNE 9 13 5 7 - - -
07/06:30pm - - - - - NE 15 19 8 10 - - -
07/06:00pm - - - - - NNE 13 15 7 8 - - -
07/05:30pm - - - - - NNE 13 17 7 9 - - -
07/05:00pm - - - - - NNE 17 20 9 11 - - -
07/04:30pm - - - - - NNE 17 20 9 11 - - -
07/04:00pm - - - - - NNE 19 24 10 13 - - -
07/03:30pm - - - - - NNE 19 26 10 14 - - -
07/03:00pm - - - - - NNE 19 24 10 13 - - -
07/02:30pm - - - - - NNE 22 28 12 15 - - -
07/02:00pm - - - - - N 22 30 12 16 - - -
07/01:30pm - - - - - NNE 20 28 11 15 - - -
07/01:00pm - - - - - NNE 19 26 10 14 - - -
07/12:30pm - - - - - NE 20 26 11 14 - - -
07/12:00pm - - - - - NE 20 24 11 13 - - -
07/11:30am - - - - - NNE 15 19 8 10 - - -
07/11:00am - - - - - NE 20 24 11 13 - - -
07/10:30am - - - - - NNE 13 19 7 10 - - -
07/10:00am - - - - - E 4 6 2 3 - - -
07/09:30am - - - - - NE 6 9 3 5 - - -
07/09:00am - - - - - NE 17 20 9 11 - - -
07/08:30am - - - - - SE 9 11 5 6 - - -
07/08:00am - - - - - SSE 11 13 6 7 - - -
07/07:30am - - - - - SSE 7 13 4 7 - - -
07/07:00am - - - - - SSE 6 7 3 4 - - -
07/06:30am - - - - - SSE 7 11 4 6 - - -
07/06:00am - - - - - SSW 7 11 4 6 - - -
07/05:30am - - - - - SW 9 11 5 6 - - -
07/05:00am - - - - - E 7 9 4 5 - - -
07/04:30am - - - - - E 9 13 5 7 - - -
07/04:00am - - - - - ESE 7 13 4 7 - - -
07/03:30am - - - - - SSE 6 9 3 5 - - -
07/03:00am - - - - - S 9 11 5 6 - - -
07/02:30am - - - - - SSE 7 9 4 5 - - -
07/02:00am - - - - - S 9 11 5 6 - - -
07/01:30am - - - - - SSW 6 9 3 5 - - -
07/01:00am - - - - - ESE 7 9 4 5 - - -
07/12:30am - - - - - ESE 7 9 4 5 - - -
07/12:00am - - - - - SSW 9 15 5 8 - - -
 
Date/Time
EST
Temp
°C
App
Temp
°C
Dew
Point
°C
Rel
Hum
%
Delta-T
°C
Wind Press
QNH
hPa
Press
MSL
hPa
Rain since
9am
mm
Dir  Spd
km/h
Gust
km/h
Spd
kts
Gust
kts
06/11:30pm - - - - - S 11 13 6 7 - - -
06/11:00pm - - - - - SSE 9 11 5 6 - - -
06/10:30pm - - - - - SE 7 7 4 4 - - -
06/10:00pm - - - - - E 6 9 3 5 - - -
06/09:30pm - - - - - CALM 0 0 0 0 - - -
06/09:00pm - - - - - CALM 0 2 0 1 - - -
06/08:30pm - - - - - N 6 7 3 4 - - -
06/08:00pm - - - - - NNE 6 9 3 5 - - -
06/07:30pm - - - - - E 11 15 6 8 - - -
06/07:00pm - - - - - E 9 13 5 7 - - -
06/06:30pm - - - - - E 20 24 11 13 - - -
06/06:00pm - - - - - ESE 17 20 9 11 - - -
06/05:30pm - - - - - SE 13 15 7 8 - - -
06/05:00pm - - - - - E 17 20 9 11 - - -
06/04:30pm - - - - - ESE 17 22 9 12 - - -
06/04:00pm - - - - - E 9 13 5 7 - - -
06/03:30pm - - - - - SE 11 13 6 7 - - -
06/03:00pm - - - - - SE 7 11 4 6 - - -
06/02:30pm - - - - - CALM 0 2 0 1 - - -
06/02:00pm - - - - - E 6 9 3 5 - - -
06/01:30pm - - - - - SE 17 20 9 11 - - -
06/01:00pm - - - - - SSE 15 19 8 10 - - -
06/12:30pm - - - - - SSE 9 11 5 6 - - -
06/12:00pm - - - - - SE 11 13 6 7 - - -
06/11:30am - - - - - SSE 9 13 5 7 - - -
06/11:00am - - - - - ESE 7 13 4 7 - - -
06/10:30am - - - - - E 4 7 2 4 - - -
06/10:00am - - - - - S 9 11 5 6 - - -
06/09:30am - - - - - SSW 7 9 4 5 - - -
06/09:00am - - - - - S 9 13 5 7 - - -
06/08:30am - - - - - S 7 13 4 7 - - -
06/08:00am - - - - - SW 13 15 7 8 - - -
06/07:30am - - - - - SSW 13 17 7 9 - - -
06/07:00am - - - - - SW 15 17 8 9 - - -
06/06:30am - - - - - S 15 20 8 11 - - -
06/06:00am - - - - - S 11 19 6 10 - - -
06/05:30am - - - - - SSW 17 19 9 10 - - -
06/05:00am - - - - - SSW 17 20 9 11 - - -
06/04:30am - - - - - SSW 13 15 7 8 - - -
06/04:00am - - - - - SE 4 7 2 4 - - -
06/03:30am - - - - - S 6 11 3 6 - - -
06/03:00am - - - - - SSW 11 15 6 8 - - -
06/02:30am - - - - - S 11 15 6 8 - - -
06/02:00am - - - - - SE 2 4 1 2 - - -
06/01:30am - - - - - S 9 11 5 6 - - -
06/01:00am - - - - - SE 6 7 3 4 - - -
06/12:30am - - - - - SE 11 19 6 10 - - -
06/12:00am - - - - - S 15 19 8 10 - - -
 
Date/Time
EST
Temp
°C
App
Temp
°C
Dew
Point
°C
Rel
Hum
%
Delta-T
°C
Wind Press
QNH
hPa
Press
MSL
hPa
Rain since
9am
mm
Dir  Spd
km/h
Gust
km/h
Spd
kts
Gust
kts
05/11:30pm - - - - - SSE 13 15 7 8 - - -
05/11:00pm - - - - - SE 6 9 3 5 - - -
05/10:30pm - - - - - ESE 9 11 5 6 - - -
05/10:00pm - - - - - NE 13 15 7 8 - - -
05/09:30pm - - - - - NE 15 20 8 11 - - -
05/09:00pm - - - - - NE 15 20 8 11 - - -
05/08:30pm - - - - - NE 15 19 8 10 - - -
05/08:00pm - - - - - ENE 15 17 8 9 - - -
05/07:30pm - - - - - NE 19 24 10 13 - - -
05/07:00pm - - - - - NE 26 32 14 17 - - -
05/06:30pm - - - - - E 19 22 10 12 - - -
05/06:00pm - - - - - ESE 22 26 12 14 - - -
05/05:30pm - - - - - E 22 30 12 16 - - -
05/05:00pm - - - - - E 22 28 12 15 - - -
05/04:30pm - - - - - ESE 20 24 11 13 - - -
05/04:00pm - - - - - ESE 20 24 11 13 - - -
05/03:30pm - - - - - SE 22 24 12 13 - - -
05/03:00pm - - - - - SE 19 24 10 13 - - -
05/02:30pm - - - - - SE 19 20 10 11 - - -
05/02:00pm - - - - - SE 17 22 9 12 - - -
05/01:30pm - - - - - SE 11 15 6 8 - - -
05/01:00pm - - - - - SE 13 15 7 8 - - -
05/12:30pm - - - - - SE 17 20 9 11 - - -
05/12:00pm - - - - - SE 17 20 9 11 - - -
05/11:30am - - - - - SE 17 20 9 11 - - -
05/11:00am - - - - - SE 15 19 8 10 - - -
05/10:30am - - - - - SE 17 20 9 11 - - -
05/10:00am - - - - - SE 15 19 8 10 - - -
05/09:30am - - - - - SE 15 19 8 10 - - -
05/09:00am - - - - - S 11 15 6 8 - - -
05/08:30am - - - - - SSW 15 17 8 9 - - -
05/08:00am - - - - - S 15 20 8 11 - - -
05/07:30am - - - - - S 19 20 10 11 - - -
05/07:00am - - - - - SSW 13 17 7 9 - - -
05/06:30am - - - - - SSW 11 13 6 7 - - -
05/06:00am - - - - - SSW 9 11 5 6 - - -
05/05:30am - - - - - S 13 15 7 8 - - -
05/05:00am - - - - - S 13 15 7 8 - - -
05/04:30am - - - - - SSW 11 13 6 7 - - -
05/04:00am - - - - - S 11 13 6 7 - - -
05/03:30am - - - - - S 11 13 6 7 - - -
05/03:00am - - - - - S 11 13 6 7 - - -
05/02:30am - - - - - S 9 11 5 6 - - -
05/02:00am - - - - - S 9 11 5 6 - - -
05/01:30am - - - - - SSW 6 9 3 5 - - -
05/01:00am - - - - - ENE 6 6 3 3 - - -
05/12:30am - - - - - ENE 6 7 3 4 - - -
05/12:00am - - - - - ENE 6 6 3 3 - - -
 
Date/Time
EST
Temp
°C
App
Temp
°C
Dew
Point
°C
Rel
Hum
%
Delta-T
°C
Wind Press
QNH
hPa
Press
MSL
hPa
Rain since
9am
mm
Dir  Spd
km/h
Gust
km/h
Spd
kts
Gust
kts
04/11:30pm - - - - - ENE 7 9 4 5 - - -
04/11:00pm - - - - - E 9 9 5 5 - - -

Other formats

Comma delimited format used in spreadsheet applications
http://www.bom.gov.au/fwo/IDQ60801/IDQ60801.94591.axf

JavaScript Object Notation format (JSON) in row-major order
http://www.bom.gov.au/fwo/IDQ60801/IDQ60801.94591.json

Data quality

Most of these data are generated automatically and are frequently updated. Quality checks on data are not normally performed. It is possible for incorrect values to appear. Refer to information at About Latest Weather Observations and please check the disclaimer before using these data.